0ksnesvaering — LMCE — position and weather

sailwx.info

Track history (hours):
 
Tides and Currents Weather Stations Pressure Air Temp Water Temp Dewpoint Dewpoint Depression Visibility Wind Speed Wind Dir Waves Ship Positions

0ksnesvaering

Last reported at 2017-Sep-22 01:00 UTC. Time now 2017-Sep-22 01:09 UTC.
Position N 62°28' E 006°09'.

Length 28 m; draft 5.3 m.

Type: Fishing. MMSI: 257580600.

Date/timePositionNaut miles runAvg speedWind from/ knotsBaromVisibWave heightAir tempDewpointWater temp
2017-Sep-22 01:00N 62°28' E 006°09'0 0.0
2017-Sep-22 00:30N 62°28' E 006°09'0 0.0
2017-Sep-22 00:00N 62°28' E 006°09'0 0.0
2017-Sep-21 23:30N 62°28' E 006°09'0 0.0
2017-Sep-21 23:00N 62°28' E 006°09'0 0.0
2017-Sep-21 22:30N 62°28' E 006°09'0 0.0
2017-Sep-21 22:00N 62°28' E 006°09'0 0.0
2017-Sep-21 21:30N 62°28' E 006°09'0 0.0
2017-Sep-21 21:00N 62°28' E 006°09'0 0.0
2017-Sep-21 20:30N 62°28' E 006°09'0 0.0
2017-Sep-21 20:01N 62°28' E 006°09'0 0.0
2017-Sep-21 19:31N 62°28' E 006°09'0 0.0
2017-Sep-21 18:59N 62°28' E 006°09'0 0.0
2017-Sep-21 18:31N 62°28' E 006°09'0 0.0
2017-Sep-21 18:01N 62°28' E 006°09'0 0.0
2017-Sep-21 17:30N 62°28' E 006°09'0 0.0
2017-Sep-21 17:01N 62°28' E 006°09'0 0.0
2017-Sep-21 16:30N 62°28' E 006°09'0 0.0
2017-Sep-21 16:00N 62°28' E 006°09'0 0.0
2017-Sep-21 15:30N 62°28' E 006°09'0 0.0
2017-Sep-21 15:00N 62°28' E 006°09'0 0.0
2017-Sep-21 14:30N 62°28' E 006°09'0 0.0
2017-Sep-21 14:00N 62°28' E 006°09'0 0.0
2017-Sep-21 13:30N 62°28' E 006°09'0 0.0
2017-Sep-21 13:00N 62°28' E 006°09'0 0.0
2017-Sep-21 12:31N 62°28' E 006°09'0 0.0
2017-Sep-21 12:00N 62°28' E 006°09'0 0.0
2017-Sep-21 11:30N 62°28' E 006°09'0 0.0
2017-Sep-21 11:00N 62°28' E 006°09'0 0.0
2017-Sep-21 10:30N 62°28' E 006°09'0 0.0
2017-Sep-21 10:01N 62°28' E 006°09'0 0.0
2017-Sep-21 09:31N 62°28' E 006°09'0 0.0
2017-Sep-21 09:01N 62°28' E 006°09'0 0.0
2017-Sep-21 08:30N 62°28' E 006°09'0 0.0
2017-Sep-21 08:01N 62°28' E 006°09'0 0.0
2017-Sep-21 07:31N 62°28' E 006°09'0 0.0
2017-Sep-21 07:00N 62°28' E 006°09'0 0.0
2017-Sep-21 06:30N 62°28' E 006°09'0 0.0
2017-Sep-21 06:00N 62°28' E 006°09'0 0.0
2017-Sep-21 05:30N 62°28' E 006°09'0 0.0
2017-Sep-21 05:00N 62°28' E 006°09'0 0.0
2017-Sep-21 04:30N 62°28' E 006°09'0 0.0
2017-Sep-21 04:00N 62°28' E 006°09'0 0.0
2017-Sep-21 03:31N 62°28' E 006°09'0 0.0
2017-Sep-21 03:00N 62°28' E 006°09'0 0.0
2017-Sep-21 02:30N 62°28' E 006°09'0 0.0
2017-Sep-21 02:00N 62°28' E 006°09'0 0.0
2017-Sep-21 01:30N 62°28' E 006°09'0 0.0
2017-Sep-21 01:00N 62°28' E 006°09'0 0.0
2017-Sep-21 00:30N 62°28' E 006°09'0 0.0
2017-Sep-21 00:00N 62°28' E 006°09'0 0.0
2017-Sep-20 23:30N 62°28' E 006°09'0 0.0
2017-Sep-20 23:00N 62°28' E 006°09'0 0.0
2017-Sep-20 22:30N 62°28' E 006°09'2 4.1
2017-Sep-20 22:00N 62°27' E 006°06'3 6.0
2017-Sep-20 21:30N 62°30' E 006°08'5 9.0
2017-Sep-20 21:01N 62°34' E 006°12'4 8.7
2017-Sep-20 20:30N 62°37' E 006°18'4 8.6
2017-Sep-20 20:00N 62°40' E 006°25'4 8.5
2017-Sep-20 19:30N 62°44' E 006°30'4 9.0
2017-Sep-20 19:00N 62°47' E 006°36'4 9.0
2017-Sep-20 18:30N 62°51' E 006°42'4 8.8
2017-Sep-20 18:00N 62°52' E 006°51'3 6.6
2017-Sep-20 17:30N 62°53' E 006°58'0 0.0
2017-Sep-20 17:01N 62°53' E 006°58'0 0.0
2017-Sep-20 16:31N 62°53' E 006°58'0 0.0
2017-Sep-20 16:01N 62°53' E 006°58'0 0.1
2017-Sep-20 15:30N 62°53' E 006°58'0 0.0
2017-Sep-20 15:00N 62°53' E 006°58'0 0.0
2017-Sep-20 14:00N 62°53' E 006°58'0 0.0
2017-Sep-20 13:30N 62°53' E 006°58'0 0.0
2017-Sep-20 13:00N 62°53' E 006°58'0 0.0
2017-Sep-20 12:30N 62°53' E 006°58'0 0.0
2017-Sep-20 12:00N 62°53' E 006°58'0 0.0
2017-Sep-20 11:30N 62°53' E 006°58'0 0.2
2017-Sep-20 11:00N 62°53' E 006°58'4 8.5
2017-Sep-20 10:30N 62°55' E 006°49'5 9.4
2017-Sep-20 10:00N 62°57' E 006°39'5 9.5
2017-Sep-20 09:30N 62°58' E 006°29'5 9.7
2017-Sep-20 09:00N 62°60' E 006°20'38 0.8
2017-Sep-18 10:18N 62°38' E 005°12'3 8.6
2017-Sep-18 10:00N 62°37' E 005°17'4 8.6
2017-Sep-18 09:30N 62°35' E 005°25'4 8.6
2017-Sep-18 09:00N 62°33' E 005°33'4 8.6
2017-Sep-18 08:30N 62°31' E 005°42'4 8.8
2017-Sep-18 08:00N 62°29' E 005°50'5 9.3
2017-Sep-18 07:30N 62°27' E 005°60'4 9.0
2017-Sep-18 07:00N 62°27' E 006°09'3 5.1
2017-Sep-18 06:30N 62°26' E 006°14'0 0.0
2017-Sep-18 06:00N 62°26' E 006°14'0 0.0
2017-Sep-18 05:30N 62°26' E 006°14'0 0.0
2017-Sep-18 05:01N 62°26' E 006°14'0 0.0
2017-Sep-18 04:30N 62°26' E 006°14'0 0.0
2017-Sep-18 04:00N 62°26' E 006°14'0 0.0
2017-Sep-18 03:30N 62°26' E 006°14'0 0.0
2017-Sep-18 03:00N 62°26' E 006°14'0 0.0
2017-Sep-18 02:30N 62°26' E 006°14'0 0.0
2017-Sep-18 02:00N 62°26' E 006°14'3 6.9
2017-Sep-18 01:30N 62°27' E 006°07'2 4.8
2017-Sep-18 01:00N 62°29' E 006°10'4 8.0
2017-Sep-18 00:30N 62°29' E 006°18'0 0.0
2017-Sep-18 00:00N 62°29' E 006°18'0 0.0
2017-Sep-17 23:30N 62°29' E 006°18'0 0.0
2017-Sep-17 23:01N 62°29' E 006°18'0 0.0
2017-Sep-17 22:31N 62°29' E 006°18'0 0.0
2017-Sep-17 22:00N 62°29' E 006°18'0 0.0
2017-Sep-17 21:30N 62°29' E 006°18'0 0.0
2017-Sep-17 21:00N 62°29' E 006°18'0 0.1
2017-Sep-17 20:30N 62°29' E 006°18'0 0.0
2017-Sep-17 20:00N 62°29' E 006°18'0 0.0
2017-Sep-17 19:31N 62°29' E 006°18'0 0.0
2017-Sep-17 19:00N 62°29' E 006°18'0 0.0
2017-Sep-17 18:30N 62°29' E 006°18'0 0.0
2017-Sep-17 18:00N 62°29' E 006°18'0 0.0
2017-Sep-17 17:31N 62°29' E 006°18'0 0.0
2017-Sep-17 17:00N 62°29' E 006°18'0 0.0
2017-Sep-17 16:30N 62°29' E 006°18'0 0.0
2017-Sep-17 16:00N 62°29' E 006°18'0 0.0
2017-Sep-17 15:30N 62°29' E 006°18'0 0.0
2017-Sep-17 15:00N 62°29' E 006°18'0 0.0
2017-Sep-17 14:30N 62°29' E 006°18'0 0.3
2017-Sep-17 14:00N 62°29' E 006°18'4 8.6
2017-Sep-17 13:30N 62°29' E 006°09'5 9.0
2017-Sep-17 13:00N 62°30' E 005°59'5 8.9
2017-Sep-17 12:30N 62°31' E 005°50'5 9.2
2017-Sep-17 12:00N 62°33' E 005°41'5 9.4
2017-Sep-17 11:30N 62°35' E 005°32'5 9.6
2017-Sep-17 11:00N 62°38' E 005°23'8 0.2
2017-Sep-15 08:47N 62°45' E 005°26'2 7.0
2017-Sep-15 08:30N 62°44' E 005°30'3 6.8
2017-Sep-15 08:01N 62°43' E 005°36'3 6.8
2017-Sep-15 07:30N 62°41' E 005°43'4 7.2
2017-Sep-15 07:00N 62°39' E 005°50'4 7.8
2017-Sep-15 06:30N 62°38' E 005°58'4 8.2
2017-Sep-15 06:00N 62°36' E 006°06'4 8.2
2017-Sep-15 05:30N 62°32' E 006°09'4 8.8
2017-Sep-15 05:00N 62°28' E 006°05'2 4.4
2017-Sep-15 04:30N 62°27' E 006°09'1 1.9
2017-Sep-15 04:00N 62°28' E 006°09'0 0.0
2017-Sep-15 03:31N 62°28' E 006°09'0 0.0
2017-Sep-15 03:00N 62°28' E 006°09'0 0.0
2017-Sep-15 02:30N 62°28' E 006°09'0 0.0
2017-Sep-15 02:00N 62°28' E 006°09'0 0.0
2017-Sep-15 01:30N 62°28' E 006°09'0 0.0
2017-Sep-15 01:00N 62°28' E 006°09'0 0.0
2017-Sep-15 00:30N 62°28' E 006°09'0 0.0
2017-Sep-15 00:00N 62°28' E 006°09'0 0.0
2017-Sep-14 23:30N 62°28' E 006°09'0 0.0
2017-Sep-14 23:00N 62°28' E 006°09'0 0.0
2017-Sep-14 22:30N 62°28' E 006°09'0 0.0
2017-Sep-14 22:00N 62°28' E 006°09'0 0.0
2017-Sep-14 21:30N 62°28' E 006°09'0 0.0
2017-Sep-14 21:00N 62°28' E 006°09'0 0.0
2017-Sep-14 20:30N 62°28' E 006°09'0 0.0
2017-Sep-14 20:00N 62°28' E 006°09'0 0.0
2017-Sep-14 19:30N 62°28' E 006°09'0 0.0
2017-Sep-14 19:00N 62°28' E 006°09'0 0.0
2017-Sep-14 18:30N 62°28' E 006°09'0 0.0
2017-Sep-14 18:00N 62°28' E 006°09'0 0.0
2017-Sep-14 17:30N 62°28' E 006°09'0 0.0
2017-Sep-14 17:00N 62°28' E 006°09'0 0.0
2017-Sep-14 16:30N 62°28' E 006°09'0 0.0
2017-Sep-14 16:00N 62°28' E 006°09'0 0.0
2017-Sep-14 15:30N 62°28' E 006°09'0 0.0
2017-Sep-14 15:00N 62°28' E 006°09'0 0.0
2017-Sep-14 14:30N 62°28' E 006°09'0 0.0
2017-Sep-14 14:00N 62°28' E 006°09'0 0.0
2017-Sep-14 13:31N 62°28' E 006°09'0 0.0
2017-Sep-14 13:00N 62°28' E 006°09'0 0.0
2017-Sep-14 12:31N 62°28' E 006°09'0 0.0
2017-Sep-14 12:01N 62°28' E 006°09'0 0.0
2017-Sep-14 11:30N 62°28' E 006°09'0 0.0
2017-Sep-14 11:00N 62°28' E 006°09'0 0.0
2017-Sep-14 10:30N 62°28' E 006°09'0 0.0
2017-Sep-14 10:00N 62°28' E 006°09'1 1.9
2017-Sep-14 09:30N 62°27' E 006°09'1 1.2
2017-Sep-14 09:00N 62°27' E 006°10'2 4.2
2017-Sep-14 08:30N 62°29' E 006°07'4 8.6
2017-Sep-14 08:00N 62°33' E 006°11'4 8.8
2017-Sep-14 07:30N 62°36' E 006°17'4 8.6
2017-Sep-14 07:00N 62°39' E 006°24'5 9.2
2017-Sep-14 06:30N 62°43' E 006°30'5 9.1
2017-Sep-14 06:00N 62°47' E 006°35'5 9.0
2017-Sep-14 05:30N 62°51' E 006°41'4 8.9
2017-Sep-14 05:00N 62°54' E 006°46'4 8.6
2017-Sep-14 04:30N 62°58' E 006°52'4 8.1
2017-Sep-14 04:00N 62°60' E 006°60'4 8.5
2017-Sep-14 03:30N 63°01' E 007°08'4 8.3
2017-Sep-14 03:00N 63°03' E 007°17'4 8.3
2017-Sep-14 02:30N 63°05' E 007°25'4 8.6
2017-Sep-14 02:01N 63°07' E 007°33'4 8.5
2017-Sep-14 01:31N 63°09' E 007°41'4 8.9
2017-Sep-14 01:01N 63°11' E 007°49'4 8.8
2017-Sep-14 00:31N 63°14' E 007°58'4 8.7
2017-Sep-14 00:00N 63°16' E 008°06'4 8.4
2017-Sep-13 23:30N 63°18' E 008°14'4 8.6
2017-Sep-13 23:00N 63°21' E 008°22'4 8.9
2017-Sep-13 22:30N 63°23' E 008°30'4 8.9
2017-Sep-13 22:00N 63°25' E 008°39'5 9.1
2017-Sep-13 21:30N 63°27' E 008°48'5 9.0
2017-Sep-13 21:00N 63°29' E 008°58'4 9.0
2017-Sep-13 20:31N 63°30' E 009°07'5 9.2
2017-Sep-13 20:00N 63°33' E 009°16'5 9.0
2017-Sep-13 19:30N 63°35' E 009°25'4 8.9
2017-Sep-13 19:01N 63°39' E 009°29'4 8.5
2017-Sep-13 18:31N 63°43' E 009°31'5 9.1
2017-Sep-13 18:00N 63°47' E 009°34'5 9.2
2017-Sep-13 17:30N 63°51' E 009°40'4 8.8
2017-Sep-13 17:00N 63°55' E 009°46'4 9.0
2017-Sep-13 16:30N 63°58' E 009°52'5 9.1
2017-Sep-13 16:00N 64°01' E 009°60'3 6.7
2017-Sep-13 15:30N 64°05' E 010°01'4 8.5
2017-Sep-13 15:00N 64°08' E 010°06'5 8.9
2017-Sep-13 14:30N 64°12' E 010°11'5 8.6
2017-Sep-13 13:55N 64°16' E 010°19'4 9.0
2017-Sep-13 13:30N 64°19' E 010°21'4 8.8
2017-Sep-13 13:00N 64°23' E 010°25'4 8.7
2017-Sep-13 12:30N 64°27' E 010°28'4 8.7
2017-Sep-13 12:00N 64°31' E 010°34'5 9.0
2017-Sep-13 11:30N 64°35' E 010°40'4 8.9
2017-Sep-13 11:00N 64°38' E 010°46'4 8.9
2017-Sep-13 10:31N 64°42' E 010°52'5 9.2
2017-Sep-13 10:00N 64°45' E 010°60'5 9.1
2017-Sep-13 09:30N 64°48' E 011°07'5 9.2
2017-Sep-13 09:01N 64°52' E 011°15'5 9.1
2017-Sep-13 08:31N 64°55' E 011°23'5 9.2
2017-Sep-13 07:58N 64°58' E 011°32'4 9.1
2017-Sep-13 07:31N 65°01' E 011°39'5 9.3
2017-Sep-13 07:00N 65°04' E 011°46'5 9.1
2017-Sep-13 06:30N 65°09' E 011°50'36 8.8
2017-Sep-13 02:22N 65°43' E 012°17'3 9.0
2017-Sep-13 01:59N 65°46' E 012°19'5 8.9
2017-Sep-13 01:28N 65°51' E 012°22'4 8.8
2017-Sep-13 01:00N 65°55' E 012°23'5 9.1
2017-Sep-13 00:30N 65°59' E 012°29'5 9.0
2017-Sep-12 23:58N 66°03' E 012°36'4 8.9
2017-Sep-12 23:30N 66°06' E 012°42'4 8.8
2017-Sep-12 23:00N 66°09' E 012°49'5 9.1
2017-Sep-12 22:30N 66°14' E 012°53'4 9.0
2017-Sep-12 22:00N 66°18' E 012°56'5 9.1
2017-Sep-12 21:31N 66°22' E 012°58'5 9.1
2017-Sep-12 21:00N 66°27' E 012°59'4 9.0
2017-Sep-12 20:31N 66°31' E 012°58'4 8.4
2017-Sep-12 20:00N 66°35' E 013°04'4 8.8
2017-Sep-12 19:30N 66°39' E 013°07'5 9.0
2017-Sep-12 19:00N 66°43' E 013°12'5 9.2
2017-Sep-12 18:30N 66°45' E 013°22'4 7.8
2017-Sep-12 18:00N 66°45' E 013°32'0 0.0
2017-Sep-12 17:30N 66°45' E 013°32'0 0.0
2017-Sep-12 17:00N 66°45' E 013°32'0 0.0
2017-Sep-12 16:30N 66°45' E 013°32'3 5.8
2017-Sep-12 16:00N 66°47' E 013°29'4 8.1
2017-Sep-12 15:30N 66°51' E 013°34'5 9.3
2017-Sep-12 15:00N 66°55' E 013°29'1 2.4
2017-Sep-12 14:30N 66°56' E 013°27'4 7.3
2017-Sep-12 14:00N 66°58' E 013°34'5 9.1
2017-Sep-12 13:30N 67°01' E 013°43'4 8.9
2017-Sep-12 13:00N 67°04' E 013°52'4 8.5
2017-Sep-12 12:31N 67°07' E 013°59'4 8.1
2017-Sep-12 12:01N 67°10' E 014°05'4 8.9
2017-Sep-12 11:31N 67°14' E 014°12'5 9.1
2017-Sep-12 11:00N 67°17' E 014°21'1 1.8
2017-Sep-12 10:28N 67°17' E 014°23'0 0.0
2017-Sep-12 09:58N 67°17' E 014°23'0 0.2
2017-Sep-12 09:28N 67°17' E 014°23'0 0.0
2017-Sep-12 08:58N 67°17' E 014°23'0 0.0
2017-Sep-12 08:28N 67°17' E 014°23'0 0.0
2017-Sep-12 07:58N 67°17' E 014°23'0 0.0
2017-Sep-12 07:28N 67°17' E 014°23'0 0.0
2017-Sep-12 06:58N 67°17' E 014°23'0 0.0
2017-Sep-12 06:28N 67°17' E 014°23'0 0.0
2017-Sep-12 05:58N 67°17' E 014°23'0 0.0
2017-Sep-12 05:28N 67°17' E 014°23'0 0.0
2017-Sep-12 04:58N 67°17' E 014°23'0 0.0
2017-Sep-12 04:28N 67°17' E 014°23'0 0.0
2017-Sep-12 03:58N 67°17' E 014°23'0 0.0
2017-Sep-12 03:28N 67°17' E 014°23'0 0.0
2017-Sep-12 02:58N 67°17' E 014°23'0 0.0
2017-Sep-12 02:28N 67°17' E 014°23'0 0.0
2017-Sep-12 01:58N 67°17' E 014°23'0 0.0
2017-Sep-12 01:28N 67°17' E 014°23'  
Track history (hours):
 
Tides and Currents Weather Stations Pressure Air Temp Water Temp Dewpoint Dewpoint Depression Visibility Wind Speed Wind Dir Waves Ship Positions

0ksnesvaering

Last reported at 2017-Sep-22 01:00 UTC. Time now 2017-Sep-22 01:09 UTC.
Position N 62°28' E 006°09'.

Length 28 m; draft 5.3 m.

Type: Fishing. MMSI: 257580600.

Date/timePositionNaut miles runAvg speedWind from/ knotsBaromVisibWave heightAir tempDewpointWater temp
2017-Sep-22 01:00N 62°28' E 006°09'0 0.0
2017-Sep-22 00:30N 62°28' E 006°09'0 0.0
2017-Sep-22 00:00N 62°28' E 006°09'0 0.0
2017-Sep-21 23:30N 62°28' E 006°09'0 0.0
2017-Sep-21 23:00N 62°28' E 006°09'0 0.0
2017-Sep-21 22:30N 62°28' E 006°09'0 0.0
2017-Sep-21 22:00N 62°28' E 006°09'0 0.0
2017-Sep-21 21:30N 62°28' E 006°09'0 0.0
2017-Sep-21 21:00N 62°28' E 006°09'0 0.0
2017-Sep-21 20:30N 62°28' E 006°09'0 0.0
2017-Sep-21 20:01N 62°28' E 006°09'0 0.0
2017-Sep-21 19:31N 62°28' E 006°09'0 0.0
2017-Sep-21 18:59N 62°28' E 006°09'0 0.0
2017-Sep-21 18:31N 62°28' E 006°09'0 0.0
2017-Sep-21 18:01N 62°28' E 006°09'0 0.0
2017-Sep-21 17:30N 62°28' E 006°09'0 0.0
2017-Sep-21 17:01N 62°28' E 006°09'0 0.0
2017-Sep-21 16:30N 62°28' E 006°09'0 0.0
2017-Sep-21 16:00N 62°28' E 006°09'0 0.0
2017-Sep-21 15:30N 62°28' E 006°09'0 0.0
2017-Sep-21 15:00N 62°28' E 006°09'0 0.0
2017-Sep-21 14:30N 62°28' E 006°09'0 0.0
2017-Sep-21 14:00N 62°28' E 006°09'0 0.0
2017-Sep-21 13:30N 62°28' E 006°09'0 0.0
2017-Sep-21 13:00N 62°28' E 006°09'0 0.0
2017-Sep-21 12:31N 62°28' E 006°09'0 0.0
2017-Sep-21 12:00N 62°28' E 006°09'0 0.0
2017-Sep-21 11:30N 62°28' E 006°09'0 0.0
2017-Sep-21 11:00N 62°28' E 006°09'0 0.0
2017-Sep-21 10:30N 62°28' E 006°09'0 0.0
2017-Sep-21 10:01N 62°28' E 006°09'0 0.0
2017-Sep-21 09:31N 62°28' E 006°09'0 0.0
2017-Sep-21 09:01N 62°28' E 006°09'0 0.0
2017-Sep-21 08:30N 62°28' E 006°09'0 0.0
2017-Sep-21 08:01N 62°28' E 006°09'0 0.0
2017-Sep-21 07:31N 62°28' E 006°09'0 0.0
2017-Sep-21 07:00N 62°28' E 006°09'0 0.0
2017-Sep-21 06:30N 62°28' E 006°09'0 0.0
2017-Sep-21 06:00N 62°28' E 006°09'0 0.0
2017-Sep-21 05:30N 62°28' E 006°09'0 0.0
2017-Sep-21 05:00N 62°28' E 006°09'0 0.0
2017-Sep-21 04:30N 62°28' E 006°09'0 0.0
2017-Sep-21 04:00N 62°28' E 006°09'0 0.0
2017-Sep-21 03:31N 62°28' E 006°09'0 0.0
2017-Sep-21 03:00N 62°28' E 006°09'0 0.0
2017-Sep-21 02:30N 62°28' E 006°09'0 0.0
2017-Sep-21 02:00N 62°28' E 006°09'0 0.0
2017-Sep-21 01:30N 62°28' E 006°09'0 0.0
2017-Sep-21 01:00N 62°28' E 006°09'0 0.0
2017-Sep-21 00:30N 62°28' E 006°09'0 0.0
2017-Sep-21 00:00N 62°28' E 006°09'0 0.0
2017-Sep-20 23:30N 62°28' E 006°09'0 0.0
2017-Sep-20 23:00N 62°28' E 006°09'0 0.0
2017-Sep-20 22:30N 62°28' E 006°09'2 4.1
2017-Sep-20 22:00N 62°27' E 006°06'3 6.0
2017-Sep-20 21:30N 62°30' E 006°08'5 9.0
2017-Sep-20 21:01N 62°34' E 006°12'4 8.7
2017-Sep-20 20:30N 62°37' E 006°18'4 8.6
2017-Sep-20 20:00N 62°40' E 006°25'4 8.5
2017-Sep-20 19:30N 62°44' E 006°30'4 9.0
2017-Sep-20 19:00N 62°47' E 006°36'4 9.0
2017-Sep-20 18:30N 62°51' E 006°42'4 8.8
2017-Sep-20 18:00N 62°52' E 006°51'3 6.6
2017-Sep-20 17:30N 62°53' E 006°58'0 0.0
2017-Sep-20 17:01N 62°53' E 006°58'0 0.0
2017-Sep-20 16:31N 62°53' E 006°58'0 0.0
2017-Sep-20 16:01N 62°53' E 006°58'0 0.1
2017-Sep-20 15:30N 62°53' E 006°58'0 0.0
2017-Sep-20 15:00N 62°53' E 006°58'0 0.0
2017-Sep-20 14:00N 62°53' E 006°58'0 0.0
2017-Sep-20 13:30N 62°53' E 006°58'0 0.0
2017-Sep-20 13:00N 62°53' E 006°58'0 0.0
2017-Sep-20 12:30N 62°53' E 006°58'0 0.0
2017-Sep-20 12:00N 62°53' E 006°58'0 0.0
2017-Sep-20 11:30N 62°53' E 006°58'0 0.2
2017-Sep-20 11:00N 62°53' E 006°58'4 8.5
2017-Sep-20 10:30N 62°55' E 006°49'5 9.4
2017-Sep-20 10:00N 62°57' E 006°39'5 9.5
2017-Sep-20 09:30N 62°58' E 006°29'5 9.7
2017-Sep-20 09:00N 62°60' E 006°20'38 0.8
2017-Sep-18 10:18N 62°38' E 005°12'3 8.6
2017-Sep-18 10:00N 62°37' E 005°17'4 8.6
2017-Sep-18 09:30N 62°35' E 005°25'4 8.6
2017-Sep-18 09:00N 62°33' E 005°33'4 8.6
2017-Sep-18 08:30N 62°31' E 005°42'4 8.8
2017-Sep-18 08:00N 62°29' E 005°50'5 9.3
2017-Sep-18 07:30N 62°27' E 005°60'4 9.0
2017-Sep-18 07:00N 62°27' E 006°09'3 5.1
2017-Sep-18 06:30N 62°26' E 006°14'0 0.0
2017-Sep-18 06:00N 62°26' E 006°14'0 0.0
2017-Sep-18 05:30N 62°26' E 006°14'0 0.0
2017-Sep-18 05:01N 62°26' E 006°14'0 0.0
2017-Sep-18 04:30N 62°26' E 006°14'0 0.0
2017-Sep-18 04:00N 62°26' E 006°14'0 0.0
2017-Sep-18 03:30N 62°26' E 006°14'0 0.0
2017-Sep-18 03:00N 62°26' E 006°14'0 0.0
2017-Sep-18 02:30N 62°26' E 006°14'0 0.0
2017-Sep-18 02:00N 62°26' E 006°14'3 6.9
2017-Sep-18 01:30N 62°27' E 006°07'2 4.8
2017-Sep-18 01:00N 62°29' E 006°10'4 8.0
2017-Sep-18 00:30N 62°29' E 006°18'0 0.0
2017-Sep-18 00:00N 62°29' E 006°18'0 0.0
2017-Sep-17 23:30N 62°29' E 006°18'0 0.0
2017-Sep-17 23:01N 62°29' E 006°18'0 0.0
2017-Sep-17 22:31N 62°29' E 006°18'0 0.0
2017-Sep-17 22:00N 62°29' E 006°18'0 0.0
2017-Sep-17 21:30N 62°29' E 006°18'0 0.0
2017-Sep-17 21:00N 62°29' E 006°18'0 0.1
2017-Sep-17 20:30N 62°29' E 006°18'0 0.0
2017-Sep-17 20:00N 62°29' E 006°18'0 0.0
2017-Sep-17 19:31N 62°29' E 006°18'0 0.0
2017-Sep-17 19:00N 62°29' E 006°18'0 0.0
2017-Sep-17 18:30N 62°29' E 006°18'0 0.0
2017-Sep-17 18:00N 62°29' E 006°18'0 0.0
2017-Sep-17 17:31N 62°29' E 006°18'0 0.0
2017-Sep-17 17:00N 62°29' E 006°18'0 0.0
2017-Sep-17 16:30N 62°29' E 006°18'0 0.0
2017-Sep-17 16:00N 62°29' E 006°18'0 0.0
2017-Sep-17 15:30N 62°29' E 006°18'0 0.0
2017-Sep-17 15:00N 62°29' E 006°18'0 0.0
2017-Sep-17 14:30N 62°29' E 006°18'0 0.3
2017-Sep-17 14:00N 62°29' E 006°18'4 8.6
2017-Sep-17 13:30N 62°29' E 006°09'5 9.0
2017-Sep-17 13:00N 62°30' E 005°59'5 8.9
2017-Sep-17 12:30N 62°31' E 005°50'5 9.2
2017-Sep-17 12:00N 62°33' E 005°41'5 9.4
2017-Sep-17 11:30N 62°35' E 005°32'5 9.6
2017-Sep-17 11:00N 62°38' E 005°23'8 0.2
2017-Sep-15 08:47N 62°45' E 005°26'2 7.0
2017-Sep-15 08:30N 62°44' E 005°30'3 6.8
2017-Sep-15 08:01N 62°43' E 005°36'3 6.8
2017-Sep-15 07:30N 62°41' E 005°43'4 7.2
2017-Sep-15 07:00N 62°39' E 005°50'4 7.8
2017-Sep-15 06:30N 62°38' E 005°58'4 8.2
2017-Sep-15 06:00N 62°36' E 006°06'4 8.2
2017-Sep-15 05:30N 62°32' E 006°09'4 8.8
2017-Sep-15 05:00N 62°28' E 006°05'2 4.4
2017-Sep-15 04:30N 62°27' E 006°09'1 1.9
2017-Sep-15 04:00N 62°28' E 006°09'0 0.0
2017-Sep-15 03:31N 62°28' E 006°09'0 0.0
2017-Sep-15 03:00N 62°28' E 006°09'0 0.0
2017-Sep-15 02:30N 62°28' E 006°09'0 0.0
2017-Sep-15 02:00N 62°28' E 006°09'0 0.0
2017-Sep-15 01:30N 62°28' E 006°09'0 0.0
2017-Sep-15 01:00N 62°28' E 006°09'0 0.0
2017-Sep-15 00:30N 62°28' E 006°09'0 0.0
2017-Sep-15 00:00N 62°28' E 006°09'0 0.0
2017-Sep-14 23:30N 62°28' E 006°09'0 0.0
2017-Sep-14 23:00N 62°28' E 006°09'0 0.0
2017-Sep-14 22:30N 62°28' E 006°09'0 0.0
2017-Sep-14 22:00N 62°28' E 006°09'0 0.0
2017-Sep-14 21:30N 62°28' E 006°09'0 0.0
2017-Sep-14 21:00N 62°28' E 006°09'0 0.0
2017-Sep-14 20:30N 62°28' E 006°09'0 0.0
2017-Sep-14 20:00N 62°28' E 006°09'0 0.0
2017-Sep-14 19:30N 62°28' E 006°09'0 0.0
2017-Sep-14 19:00N 62°28' E 006°09'0 0.0
2017-Sep-14 18:30N 62°28' E 006°09'0 0.0
2017-Sep-14 18:00N 62°28' E 006°09'0 0.0
2017-Sep-14 17:30N 62°28' E 006°09'0 0.0
2017-Sep-14 17:00N 62°28' E 006°09'0 0.0
2017-Sep-14 16:30N 62°28' E 006°09'0 0.0
2017-Sep-14 16:00N 62°28' E 006°09'0 0.0
2017-Sep-14 15:30N 62°28' E 006°09'0 0.0
2017-Sep-14 15:00N 62°28' E 006°09'0 0.0
2017-Sep-14 14:30N 62°28' E 006°09'0 0.0
2017-Sep-14 14:00N 62°28' E 006°09'0 0.0
2017-Sep-14 13:31N 62°28' E 006°09'0 0.0
2017-Sep-14 13:00N 62°28' E 006°09'0 0.0
2017-Sep-14 12:31N 62°28' E 006°09'0 0.0
2017-Sep-14 12:01N 62°28' E 006°09'0 0.0
2017-Sep-14 11:30N 62°28' E 006°09'0 0.0
2017-Sep-14 11:00N 62°28' E 006°09'0 0.0
2017-Sep-14 10:30N 62°28' E 006°09'0 0.0
2017-Sep-14 10:00N 62°28' E 006°09'1 1.9
2017-Sep-14 09:30N 62°27' E 006°09'1 1.2
2017-Sep-14 09:00N 62°27' E 006°10'2 4.2
2017-Sep-14 08:30N 62°29' E 006°07'4 8.6
2017-Sep-14 08:00N 62°33' E 006°11'4 8.8
2017-Sep-14 07:30N 62°36' E 006°17'4 8.6
2017-Sep-14 07:00N 62°39' E 006°24'5 9.2
2017-Sep-14 06:30N 62°43' E 006°30'5 9.1
2017-Sep-14 06:00N 62°47' E 006°35'5 9.0
2017-Sep-14 05:30N 62°51' E 006°41'4 8.9
2017-Sep-14 05:00N 62°54' E 006°46'4 8.6
2017-Sep-14 04:30N 62°58' E 006°52'4 8.1
2017-Sep-14 04:00N 62°60' E 006°60'4 8.5
2017-Sep-14 03:30N 63°01' E 007°08'4 8.3
2017-Sep-14 03:00N 63°03' E 007°17'4 8.3
2017-Sep-14 02:30N 63°05' E 007°25'4 8.6
2017-Sep-14 02:01N 63°07' E 007°33'4 8.5
2017-Sep-14 01:31N 63°09' E 007°41'4 8.9
2017-Sep-14 01:01N 63°11' E 007°49'4 8.8
2017-Sep-14 00:31N 63°14' E 007°58'4 8.7
2017-Sep-14 00:00N 63°16' E 008°06'4 8.4
2017-Sep-13 23:30N 63°18' E 008°14'4 8.6
2017-Sep-13 23:00N 63°21' E 008°22'4 8.9
2017-Sep-13 22:30N 63°23' E 008°30'4 8.9
2017-Sep-13 22:00N 63°25' E 008°39'5 9.1
2017-Sep-13 21:30N 63°27' E 008°48'5 9.0
2017-Sep-13 21:00N 63°29' E 008°58'4 9.0
2017-Sep-13 20:31N 63°30' E 009°07'5 9.2
2017-Sep-13 20:00N 63°33' E 009°16'5 9.0
2017-Sep-13 19:30N 63°35' E 009°25'4 8.9
2017-Sep-13 19:01N 63°39' E 009°29'4 8.5
2017-Sep-13 18:31N 63°43' E 009°31'5 9.1
2017-Sep-13 18:00N 63°47' E 009°34'5 9.2
2017-Sep-13 17:30N 63°51' E 009°40'4 8.8
2017-Sep-13 17:00N 63°55' E 009°46'4 9.0
2017-Sep-13 16:30N 63°58' E 009°52'5 9.1
2017-Sep-13 16:00N 64°01' E 009°60'3 6.7
2017-Sep-13 15:30N 64°05' E 010°01'4 8.5
2017-Sep-13 15:00N 64°08' E 010°06'5 8.9
2017-Sep-13 14:30N 64°12' E 010°11'5 8.6
2017-Sep-13 13:55N 64°16' E 010°19'4 9.0
2017-Sep-13 13:30N 64°19' E 010°21'4 8.8
2017-Sep-13 13:00N 64°23' E 010°25'4 8.7
2017-Sep-13 12:30N 64°27' E 010°28'4 8.7
2017-Sep-13 12:00N 64°31' E 010°34'5 9.0
2017-Sep-13 11:30N 64°35' E 010°40'4 8.9
2017-Sep-13 11:00N 64°38' E 010°46'4 8.9
2017-Sep-13 10:31N 64°42' E 010°52'5 9.2
2017-Sep-13 10:00N 64°45' E 010°60'5 9.1
2017-Sep-13 09:30N 64°48' E 011°07'5 9.2
2017-Sep-13 09:01N 64°52' E 011°15'5 9.1
2017-Sep-13 08:31N 64°55' E 011°23'5 9.2
2017-Sep-13 07:58N 64°58' E 011°32'4 9.1
2017-Sep-13 07:31N 65°01' E 011°39'5 9.3
2017-Sep-13 07:00N 65°04' E 011°46'5 9.1
2017-Sep-13 06:30N 65°09' E 011°50'36 8.8
2017-Sep-13 02:22N 65°43' E 012°17'3 9.0
2017-Sep-13 01:59N 65°46' E 012°19'5 8.9
2017-Sep-13 01:28N 65°51' E 012°22'4 8.8
2017-Sep-13 01:00N 65°55' E 012°23'5 9.1
2017-Sep-13 00:30N 65°59' E 012°29'5 9.0
2017-Sep-12 23:58N 66°03' E 012°36'4 8.9
2017-Sep-12 23:30N 66°06' E 012°42'4 8.8
2017-Sep-12 23:00N 66°09' E 012°49'5 9.1
2017-Sep-12 22:30N 66°14' E 012°53'4 9.0
2017-Sep-12 22:00N 66°18' E 012°56'5 9.1
2017-Sep-12 21:31N 66°22' E 012°58'5 9.1
2017-Sep-12 21:00N 66°27' E 012°59'4 9.0
2017-Sep-12 20:31N 66°31' E 012°58'4 8.4
2017-Sep-12 20:00N 66°35' E 013°04'4 8.8
2017-Sep-12 19:30N 66°39' E 013°07'5 9.0
2017-Sep-12 19:00N 66°43' E 013°12'5 9.2
2017-Sep-12 18:30N 66°45' E 013°22'4 7.8
2017-Sep-12 18:00N 66°45' E 013°32'0 0.0
2017-Sep-12 17:30N 66°45' E 013°32'0 0.0
2017-Sep-12 17:00N 66°45' E 013°32'0 0.0
2017-Sep-12 16:30N 66°45' E 013°32'3 5.8
2017-Sep-12 16:00N 66°47' E 013°29'4 8.1
2017-Sep-12 15:30N 66°51' E 013°34'5 9.3
2017-Sep-12 15:00N 66°55' E 013°29'1 2.4
2017-Sep-12 14:30N 66°56' E 013°27'4 7.3
2017-Sep-12 14:00N 66°58' E 013°34'5 9.1
2017-Sep-12 13:30N 67°01' E 013°43'4 8.9
2017-Sep-12 13:00N 67°04' E 013°52'4 8.5
2017-Sep-12 12:31N 67°07' E 013°59'4 8.1
2017-Sep-12 12:01N 67°10' E 014°05'4 8.9
2017-Sep-12 11:31N 67°14' E 014°12'5 9.1
2017-Sep-12 11:00N 67°17' E 014°21'1 1.8
2017-Sep-12 10:28N 67°17' E 014°23'0 0.0
2017-Sep-12 09:58N 67°17' E 014°23'0 0.2
2017-Sep-12 09:28N 67°17' E 014°23'0 0.0
2017-Sep-12 08:58N 67°17' E 014°23'0 0.0
2017-Sep-12 08:28N 67°17' E 014°23'0 0.0
2017-Sep-12 07:58N 67°17' E 014°23'0 0.0
2017-Sep-12 07:28N 67°17' E 014°23'0 0.0
2017-Sep-12 06:58N 67°17' E 014°23'0 0.0
2017-Sep-12 06:28N 67°17' E 014°23'0 0.0
2017-Sep-12 05:58N 67°17' E 014°23'0 0.0
2017-Sep-12 05:28N 67°17' E 014°23'0 0.0
2017-Sep-12 04:58N 67°17' E 014°23'0 0.0
2017-Sep-12 04:28N 67°17' E 014°23'0 0.0
2017-Sep-12 03:58N 67°17' E 014°23'0 0.0
2017-Sep-12 03:28N 67°17' E 014°23'0 0.0
2017-Sep-12 02:58N 67°17' E 014°23'0 0.0
2017-Sep-12 02:28N 67°17' E 014°23'0 0.0
2017-Sep-12 01:58N 67°17' E 014°23'0 0.0
2017-Sep-12 01:28N 67°17' E 014°23'  

Dump ship's entire track history